Time;durP1;ratioP1;P1;durP2;ratioP2;P2;SDS_P1;SDS_P2;PMS_P1;PMS_P2;Temp;Humidity;BMP_temperature;BMP_pressure;BME280_temperature;BME280_humidity;BME280_pressure;Samples;Min_cycle;Max_cycle;Signal;HPM_P1;HPM_P2
2023/04/26 00:28:35;;;;;;;4.43;1.77;;;1.80;99.90;;;;;;5022747;28;20091;-57
2023/04/26 00:31:45;;;;;;;10.13;1.95;;;1.70;99.90;;;;;;5036745;28;20075;-57
2023/04/26 00:34:11;;;;;;;7.72;2.33;;;1.60;99.90;;;;;;5042954;28;20055;-57
2023/04/26 00:36:36;;;;;;;4.30;1.15;;;1.70;99.90;;;;;;5041763;28;20041;-57
2023/04/26 00:39:39;;;;;;;9.40;1.67;;;0.30;99.90;;;;;;5036792;28;20097;-57
2023/04/26 00:42:42;;;;;;;11.88;2.15;;;1.50;99.90;;;;;;5033142;28;20056;-57
2023/04/26 00:49:16;;;;;;;6.00;1.50;;;1.50;99.90;;;;;;4939091;28;20129;-57
2023/04/26 01:03:17;;;;;;;6.53;1.63;;;1.50;99.90;;;;;;4913174;29;20098;-57
2023/04/26 01:06:33;;;;;;;9.05;1.85;;;1.50;99.90;;;;;;4916362;29;20054;-57
2023/04/26 01:12:56;;;;;;;11.75;3.45;;;1.50;99.90;;;;;;4896447;29;20449;-57
2023/04/26 01:23:26;;;;;;;8.38;2.08;;;2.10;99.90;;;;;;4946403;28;20046;-57
2023/04/26 01:26:18;;;;;;;6.45;2.05;;;1.70;99.90;;;;;;4946402;28;20145;-57
2023/04/26 03:19:43;;;;;;;6.63;1.42;;;1.00;99.90;;;;;;5013474;28;20948;-50
2023/04/26 03:22:14;;;;;;;11.13;2.03;;;1.10;99.90;;;;;;5048458;28;20084;-52
2023/04/26 03:24:43;;;;;;;4.45;1.83;;;1.30;99.90;;;;;;5030657;28;20106;-52
2023/04/26 03:27:09;;;;;;;7.45;2.30;;;0.90;99.90;;;;;;5048968;28;20120;-51
2023/04/26 03:29:35;;;;;;;6.70;2.13;;;0.90;99.90;;;;;;5048756;28;20136;-51
2023/04/26 03:32:00;;;;;;;6.32;1.60;;;1.30;99.90;;;;;;5031025;28;20251;-52
2023/04/26 03:34:26;;;;;;;3.30;1.45;;;1.00;99.90;;;;;;5048542;28;20041;-52
2023/04/26 03:36:52;;;;;;;7.63;1.52;;;1.00;99.90;;;;;;5049264;28;20041;-51
2023/04/26 03:39:17;;;;;;;5.93;1.63;;;1.00;99.90;;;;;;5048443;28;20045;-49
2023/04/26 03:41:43;;;;;;;5.97;1.80;;;1.10;99.90;;;;;;5061465;28;20076;-51
2023/04/26 03:44:09;;;;;;;12.32;1.70;;;1.40;99.90;;;;;;5088430;28;20440;-52
2023/04/26 03:46:35;;;;;;;9.57;1.52;;;1.00;99.90;;;;;;5054575;28;20463;-52
2023/04/26 03:49:00;;;;;;;5.05;1.55;;;0.90;99.90;;;;;;5051042;28;20048;-50
2023/04/26 03:51:27;;;;;;;7.72;2.58;;;0.90;99.90;;;;;;5067946;28;20129;-49
2023/04/26 03:53:53;;;;;;;6.57;1.80;;;0.70;99.90;;;;;;5068646;28;20046;-50
2023/04/26 03:56:19;;;;;;;4.68;1.38;;;1.00;99.90;;;;;;5068156;28;20046;-52
2023/04/26 03:58:45;;;;;;;7.70;1.83;;;0.90;99.90;;;;;;5068318;28;20462;-49
2023/04/26 04:01:11;;;;;;;10.23;2.67;;;1.00;99.90;;;;;;5068094;28;20090;-52
2023/04/26 04:03:37;;;;;;;5.78;1.38;;;1.10;99.90;;;;;;5068160;28;20610;-52
2023/04/26 04:06:02;;;;;;;4.85;1.50;;;1.20;99.90;;;;;;5069080;28;20075;-51
2023/04/26 04:08:28;;;;;;;4.55;1.52;;;1.10;99.90;;;;;;5067990;28;20763;-50
2023/04/26 04:10:55;;;;;;;6.85;1.90;;;1.50;99.90;;;;;;5068507;28;20490;-52
2023/04/26 04:13:21;;;;;;;7.97;1.90;;;1.30;99.90;;;;;;5067638;28;20035;-52
2023/04/26 04:15:47;;;;;;;8.60;2.08;;;1.30;99.90;;;;;;5044170;28;20048;-53
2023/04/26 04:18:13;;;;;;;6.97;1.70;;;1.40;99.90;;;;;;5047195;28;20599;-51
2023/04/26 04:20:40;;;;;;;7.90;1.95;;;1.40;99.90;;;;;;5047507;28;20570;-51
2023/04/26 04:23:06;;;;;;;8.13;1.85;;;1.50;99.90;;;;;;5028937;28;20372;-53
2023/04/26 04:25:33;;;;;;;6.10;1.90;;;1.50;99.90;;;;;;5047512;28;20375;-51
2023/04/26 04:28:00;;;;;;;6.95;1.73;;;1.50;99.90;;;;;;5046512;28;20467;-51
2023/04/26 04:30:30;;;;;;;5.85;2.00;;;1.60;99.90;;;;;;5046588;28;20118;-50
2023/04/26 04:32:58;;;;;;;5.60;2.00;;;1.50;99.90;;;;;;5045321;28;20052;-53
2023/04/26 04:35:29;;;;;;;7.30;1.88;;;1.70;99.90;;;;;;5043955;28;20816;-51
2023/04/26 04:37:57;;;;;;;5.35;1.75;;;3.70;99.90;;;;;;5045556;28;20044;-51
2023/04/26 04:40:24;;;;;;;6.35;1.80;;;1.80;99.90;;;;;;5046265;28;20459;-50
2023/04/26 04:42:51;;;;;;;5.35;2.58;;;2.40;99.90;;;;;;5045698;28;20156;-50
2023/04/26 04:45:17;;;;;;;8.98;1.60;;;1.80;99.90;;;;;;5046223;28;20108;-51
2023/04/26 04:47:44;;;;;;;8.48;2.30;;;1.90;99.90;;;;;;5040868;28;20036;-52
2023/04/26 04:50:10;;;;;;;6.85;1.55;;;1.90;99.90;;;;;;5025581;28;20045;-50
2023/04/26 04:52:35;;;;;;;6.57;1.80;;;1.70;99.90;;;;;;5041572;28;20462;-52
2023/04/26 04:55:02;;;;;;;8.95;1.90;;;2.20;99.90;;;;;;5024439;28;20506;-51
2023/04/26 04:57:28;;;;;;;4.82;1.58;;;1.90;99.90;;;;;;5041735;28;20033;-51
2023/04/26 04:59:54;;;;;;;5.88;1.90;;;2.10;99.90;;;;;;5037366;28;20124;-51
2023/04/26 05:02:20;;;;;;;5.28;1.80;;;2.40;99.90;;;;;;5036541;28;20897;-52
2023/04/26 05:04:46;;;;;;;7.35;1.60;;;2.50;99.90;;;;;;5017623;28;20076;-51
2023/04/26 05:07:14;;;;;;;8.82;2.13;;;2.20;99.90;;;;;;5042950;28;20063;-50
2023/04/26 05:09:40;;;;;;;5.40;1.85;;;2.30;99.90;;;;;;5044121;28;20036;-51
2023/04/26 05:12:06;;;;;;;6.82;1.90;;;2.40;99.90;;;;;;5042322;28;20476;-52
2023/04/26 05:14:32;;;;;;;9.32;2.10;;;2.50;99.90;;;;;;5043879;28;20029;-52
2023/04/26 05:16:58;;;;;;;5.35;2.30;;;2.60;99.90;;;;;;5062500;28;20457;-51
2023/04/26 05:19:24;;;;;;;7.93;2.13;;;2.70;99.90;;;;;;5063815;28;20047;-53
2023/04/26 05:21:51;;;;;;;6.57;1.75;;;2.60;99.90;;;;;;5061646;28;20040;-51
2023/04/26 05:24:16;;;;;;;10.48;2.78;;;3.40;99.90;;;;;;5045780;28;20493;-51
2023/04/26 05:26:42;;;;;;;8.52;2.38;;;2.80;99.90;;;;;;5044199;28;20045;-52
2023/04/26 05:29:08;;;;;;;7.07;2.97;;;3.30;99.90;;;;;;5060998;28;20040;-50
2023/04/26 05:31:33;;;;;;;6.75;2.30;;;2.90;99.90;;;;;;5063192;28;20466;-52
2023/04/26 05:33:59;;;;;;;6.40;2.38;;;3.00;99.90;;;;;;5061129;28;20032;-54
2023/04/26 05:36:25;;;;;;;6.18;2.00;;;3.10;99.90;;;;;;5063962;28;20041;-50
2023/04/26 05:38:51;;;;;;;14.25;2.20;;;3.20;99.90;;;;;;5061284;28;20111;-53
2023/04/26 05:41:17;;;;;;;7.90;2.47;;;4.00;99.90;;;;;;5061138;28;20537;-52
2023/04/26 05:43:43;;;;;;;8.07;2.35;;;4.20;99.90;;;;;;5045036;28;20048;-52
2023/04/26 05:46:08;;;;;;;7.68;2.72;;;3.30;99.90;;;;;;5063857;28;20398;-51
2023/04/26 05:48:34;;;;;;;6.38;2.10;;;3.60;99.90;;;;;;5066804;28;20054;-51
2023/04/26 05:51:00;;;;;;;10.80;2.45;;;3.60;99.90;;;;;;5066035;28;20084;-53
2023/04/26 05:53:26;;;;;;;7.68;2.05;;;4.10;99.90;;;;;;5036890;28;20047;-49
2023/04/26 05:55:51;;;;;;;5.53;2.08;;;5.00;99.90;;;;;;5065921;28;20089;-51
2023/04/26 05:58:17;;;;;;;8.93;4.00;;;4.00;99.90;;;;;;5048233;28;20484;-51
2023/04/26 06:00:43;;;;;;;10.85;1.70;;;4.00;99.90;;;;;;5065804;28;20098;-51
2023/04/26 06:03:08;;;;;;;7.75;1.65;;;4.50;99.90;;;;;;5066878;28;20028;-51
2023/04/26 06:05:37;;;;;;;6.03;2.50;;;4.90;99.90;;;;;;5066557;28;20041;-53
2023/04/26 06:08:02;;;;;;;11.25;3.47;;;4.20;99.90;;;;;;5064490;28;20052;-51
2023/04/26 06:10:28;;;;;;;7.82;1.95;;;4.50;99.90;;;;;;5050975;28;20052;-53
2023/04/26 06:12:54;;;;;;;6.78;1.85;;;5.20;99.90;;;;;;5068353;28;20498;-51
2023/04/26 06:15:20;;;;;;;6.45;1.73;;;5.50;99.90;;;;;;5050540;28;20418;-52
2023/04/26 06:17:45;;;;;;;5.85;1.50;;;6.10;99.90;;;;;;5068495;28;20498;-52
2023/04/26 06:20:11;;;;;;;8.43;1.98;;;6.90;99.90;;;;;;5049791;28;20488;-53
2023/04/26 06:22:37;;;;;;;6.53;2.22;;;8.30;99.90;;;;;;5068377;28;20048;-52
2023/04/26 06:25:04;;;;;;;7.47;1.67;;;7.40;99.90;;;;;;5068024;28;20051;-51
2023/04/26 06:27:30;;;;;;;6.05;1.58;;;8.40;99.90;;;;;;5068237;28;20086;-52
2023/04/26 06:29:56;;;;;;;4.13;1.80;;;8.10;99.90;;;;;;5068023;28;20044;-52
2023/04/26 06:32:22;;;;;;;5.43;1.27;;;8.40;99.90;;;;;;5068249;28;20044;-53
2023/04/26 06:34:47;;;;;;;5.95;1.30;;;8.80;99.90;;;;;;5068544;28;20039;-53
2023/04/26 06:37:13;;;;;;;5.82;1.20;;;9.10;99.90;;;;;;5065440;28;20068;-53
2023/04/26 06:39:39;;;;;;;7.78;1.17;;;9.30;99.90;;;;;;5050498;28;20036;-52
2023/04/26 06:42:05;;;;;;;4.38;1.23;;;9.10;99.90;;;;;;5049912;28;20048;-52
2023/04/26 06:44:31;;;;;;;7.75;1.00;;;8.80;99.90;;;;;;5050153;28;20121;-53
2023/04/26 06:46:56;;;;;;;7.18;1.40;;;8.60;99.90;;;;;;5050278;28;20042;-52
2023/04/26 06:49:22;;;;;;;3.20;1.10;;;9.10;99.90;;;;;;5067920;28;20032;-54
2023/04/26 06:51:48;;;;;;;6.00;1.10;;;7.80;99.90;;;;;;5068170;28;20138;-53
2023/04/26 06:54:14;;;;;;;3.13;1.00;;;7.90;99.90;;;;;;5065435;28;20037;-53
2023/04/26 06:56:40;;;;;;;6.00;1.40;;;7.50;99.90;;;;;;5068374;28;20032;-53
2023/04/26 06:59:06;;;;;;;5.05;0.70;;;7.50;99.90;;;;;;5066793;28;20048;-52
2023/04/26 07:01:33;;;;;;;3.13;0.88;;;8.50;99.90;;;;;;5067649;28;20044;-53
2023/04/26 07:04:02;;;;;;;6.95;0.90;;;8.40;99.90;;;;;;5064183;28;20041;-53
2023/04/26 07:06:28;;;;;;;4.15;1.00;;;7.40;99.90;;;;;;5050054;28;20037;-52
2023/04/26 07:08:54;;;;;;;4.43;1.23;;;7.40;99.90;;;;;;5067013;28;20041;-52
2023/04/26 07:11:20;;;;;;;2.50;0.88;;;7.70;99.90;;;;;;5067052;28;20043;-52
2023/04/26 07:13:46;;;;;;;4.25;0.70;;;7.50;99.90;;;;;;5067148;28;20037;-52
2023/04/26 07:16:11;;;;;;;5.60;0.77;;;8.20;99.90;;;;;;5044825;28;20056;-53
2023/04/26 07:18:40;;;;;;;2.58;0.57;;;7.60;99.90;;;;;;5041918;28;20044;-51
2023/04/26 07:21:06;;;;;;;5.32;0.80;;;10.10;99.90;;;;;;5063929;28;20039;-53
2023/04/26 07:23:32;;;;;;;2.72;0.50;;;8.20;99.90;;;;;;5047844;28;20459;-52
2023/04/26 07:25:57;;;;;;;3.42;0.63;;;8.20;99.90;;;;;;5066451;28;20048;-53
2023/04/26 07:28:23;;;;;;;3.75;0.70;;;9.20;99.90;;;;;;5066201;28;20408;-54
2023/04/26 07:30:49;;;;;;;3.08;0.57;;;8.30;99.90;;;;;;5048337;28;20045;-54
2023/04/26 07:33:15;;;;;;;2.00;0.47;;;8.40;99.90;;;;;;5064469;28;20044;-53
2023/04/26 07:35:42;;;;;;;3.58;0.70;;;8.80;99.90;;;;;;5065364;28;20111;-53
2023/04/26 07:38:09;;;;;;;3.97;0.50;;;8.20;99.90;;;;;;5059928;28;20048;-53
2023/04/26 07:40:35;;;;;;;4.07;0.68;;;8.10;99.90;;;;;;5056139;28;20101;-53
2023/04/26 07:43:01;;;;;;;5.28;0.63;;;8.10;99.90;;;;;;5056125;28;20069;-52
2023/04/26 07:45:26;;;;;;;4.25;0.70;;;8.00;99.90;;;;;;5054193;28;20064;-53
2023/04/26 07:47:53;;;;;;;7.05;0.80;;;8.50;99.90;;;;;;5055925;28;20044;-53
2023/04/26 07:50:19;;;;;;;5.85;0.98;;;8.00;99.90;;;;;;5058966;28;20255;-52
2023/04/26 07:52:45;;;;;;;2.83;1.13;;;8.50;99.90;;;;;;5060214;28;20044;-54
2023/04/26 07:55:10;;;;;;;2.97;0.60;;;8.60;99.90;;;;;;5061169;28;20645;-53
2023/04/26 07:57:36;;;;;;;6.50;1.17;;;9.00;99.90;;;;;;5060648;28;20098;-54
2023/04/26 08:00:09;;;;;;;3.28;0.50;;;9.40;99.90;;;;;;5045874;28;20024;-52
2023/04/26 08:02:35;;;;;;;3.13;0.98;;;9.40;99.90;;;;;;5064869;28;20040;-57
2023/04/26 08:05:01;;;;;;;5.40;0.77;;;9.60;99.90;;;;;;5062104;28;20044;-52
2023/04/26 08:07:26;;;;;;;7.13;0.70;;;9.80;99.90;;;;;;5057298;28;20113;-55
2023/04/26 08:09:52;;;;;;;4.88;0.75;;;9.90;99.90;;;;;;5063815;28;20036;-57
2023/04/26 08:12:18;;;;;;;7.85;0.82;;;10.00;99.90;;;;;;5062052;28;20571;-57
2023/04/26 08:14:45;;;;;;;8.32;0.65;;;10.00;99.60;;;;;;5056299;28;20033;-55
2023/04/26 08:17:11;;;;;;;3.67;0.50;;;10.10;99.20;;;;;;5059707;28;20057;-58
2023/04/26 08:19:37;;;;;;;3.47;0.70;;;10.00;98.60;;;;;;5057270;28;20035;-56
2023/04/26 08:22:03;;;;;;;2.30;0.57;;;9.90;98.30;;;;;;5057327;28;20524;-56
2023/04/26 08:24:28;;;;;;;3.65;0.50;;;10.30;98.00;;;;;;5040030;28;20055;-57
2023/04/26 08:26:55;;;;;;;2.88;0.50;;;10.30;98.00;;;;;;5064645;28;20379;-57
2023/04/26 08:29:22;;;;;;;3.35;1.17;;;10.70;97.70;;;;;;5041902;28;20398;-58
2023/04/26 08:31:47;;;;;;;4.30;0.55;;;11.00;97.00;;;;;;5063747;28;20486;-57
2023/04/26 08:34:13;;;;;;;8.93;0.75;;;11.50;96.40;;;;;;5064472;28;20035;-58
2023/04/26 08:36:40;;;;;;;7.40;1.13;;;11.30;95.80;;;;;;5061149;28;20056;-58
2023/04/26 08:39:06;;;;;;;5.75;0.47;;;11.50;95.50;;;;;;5061715;28;20111;-57
2023/04/26 08:41:37;;;;;;;1.45;0.40;;;11.70;94.80;;;;;;5046846;28;20079;-58
2023/04/26 08:44:04;;;;;;;7.35;1.02;;;11.90;94.50;;;;;;5052595;28;20075;-57
2023/04/26 08:46:50;;;;;;;5.07;0.63;;;12.00;94.00;;;;;;5002908;28;20048;-59
2023/04/26 08:49:36;;;;;;;2.03;0.40;;;12.00;93.80;;;;;;5028430;28;20041;-61
2023/04/26 08:52:03;;;;;;;2.22;0.75;;;12.10;94.10;;;;;;5028281;28;20052;-62
2023/04/26 08:54:30;;;;;;;2.97;0.98;;;12.20;93.80;;;;;;5029462;28;20046;-54
2023/04/26 08:56:58;;;;;;;3.30;0.65;;;12.40;94.30;;;;;;5027844;28;20067;-56
2023/04/26 08:59:24;;;;;;;11.35;1.45;;;12.50;94.60;;;;;;5049860;28;20720;-56
2023/04/26 09:01:51;;;;;;;3.13;0.50;;;12.50;93.60;;;;;;5033153;28;20073;-56
2023/04/26 09:04:17;;;;;;;4.40;0.57;;;12.40;93.10;;;;;;5060981;28;20039;-61
2023/04/26 09:06:43;;;;;;;7.22;1.63;;;12.40;93.00;;;;;;5015493;28;20127;-60
2023/04/26 09:09:15;;;;;;;5.82;1.13;;;12.30;92.40;;;;;;5047917;28;20029;-60
2023/04/26 09:11:52;;;;;;;3.45;0.63;;;12.10;91.70;;;;;;5024657;28;21253;-61
2023/04/26 09:14:18;;;;;;;3.70;0.60;;;11.90;92.00;;;;;;5027428;28;20076;-61
2023/04/26 09:16:44;;;;;;;2.47;1.02;;;11.60;92.40;;;;;;5042597;28;20057;-59
2023/04/26 09:19:10;;;;;;;3.30;0.63;;;11.40;92.40;;;;;;5039154;28;20040;-62
2023/04/26 09:21:46;;;;;;;4.95;0.65;;;11.00;91.70;;;;;;5013055;28;20040;-63
2023/04/26 09:24:12;;;;;;;4.38;0.50;;;10.70;92.20;;;;;;5039739;28;20105;-67
2023/04/26 09:26:39;;;;;;;3.90;0.70;;;10.30;91.90;;;;;;5032103;28;20468;-68
2023/04/26 09:29:19;;;;;;;5.93;0.73;;;10.20;92.40;;;;;;5055706;28;20155;-63
2023/04/26 09:31:47;;;;;;;5.45;1.33;;;10.00;92.60;;;;;;5049375;28;20079;-66
2023/04/26 09:34:15;;;;;;;2.97;0.55;;;10.30;93.80;;;;;;5038477;28;20052;-65
2023/04/26 09:36:51;;;;;;;5.43;0.70;;;10.70;94.50;;;;;;5040392;28;20725;-65
2023/04/26 09:39:33;;;;;;;6.82;0.80;;;11.00;94.70;;;;;;5032368;28;20044;-55
2023/04/26 09:41:59;;;;;;;3.53;0.60;;;10.90;94.50;;;;;;5013717;28;20056;-59
2023/04/26 09:44:25;;;;;;;6.10;0.90;;;11.00;94.80;;;;;;5062310;28;20799;-59
2023/04/26 09:47:10;;;;;;;5.85;0.50;;;11.00;94.70;;;;;;5038632;28;20052;-58
2023/04/26 09:49:50;;;;;;;2.33;0.55;;;10.90;93.90;;;;;;5051005;28;20088;-56
2023/04/26 09:52:17;;;;;;;6.10;1.63;;;10.60;93.70;;;;;;5022111;28;20119;-58
2023/04/26 09:54:47;;;;;;;3.83;0.73;;;10.30;93.30;;;;;;5047508;28;20126;-59
2023/04/26 09:57:15;;;;;;;6.03;0.60;;;9.90;93.00;;;;;;5057051;28;20063;-61
2023/04/26 09:59:50;;;;;;;4.63;1.15;;;9.50;93.00;;;;;;5052726;28;20033;-64
2023/04/26 10:02:23;;;;;;;5.63;1.10;;;9.20;93.40;;;;;;5034102;28;20060;-64
2023/04/26 10:04:52;;;;;;;2.50;0.90;;;8.80;93.80;;;;;;5057734;28;20490;-63
2023/04/26 10:07:20;;;;;;;4.18;0.80;;;9.00;94.40;;;;;;5044328;28;20341;-61
2023/04/26 10:09:46;;;;;;;7.35;1.00;;;8.40;94.80;;;;;;5049934;28;20375;-65
2023/04/26 10:12:15;;;;;;;4.78;1.20;;;8.20;95.30;;;;;;5050801;28;20036;-64
2023/04/26 10:14:42;;;;;;;5.18;0.80;;;8.20;95.60;;;;;;5055440;28;20036;-64
2023/04/26 10:17:07;;;;;;;3.95;0.60;;;8.50;96.00;;;;;;5045855;28;20044;-63
2023/04/26 10:19:34;;;;;;;5.35;1.00;;;8.20;96.00;;;;;;5040747;28;20043;-60
2023/04/26 10:22:12;;;;;;;2.42;0.65;;;8.10;96.10;;;;;;5059240;28;20091;-61
2023/04/26 10:24:38;;;;;;;4.43;0.93;;;8.00;96.20;;;;;;5044967;28;20129;-60
2023/04/26 10:27:04;;;;;;;5.18;1.08;;;7.90;96.10;;;;;;5019418;28;20816;-57
2023/04/26 10:29:54;;;;;;;6.63;0.85;;;7.90;96.40;;;;;;5049781;28;20119;-56
2023/04/26 10:32:23;;;;;;;3.28;0.95;;;8.00;96.70;;;;;;5054948;28;20090;-57
2023/04/26 10:35:11;;;;;;;4.25;0.98;;;8.00;96.90;;;;;;5059311;28;20033;-56
2023/04/26 10:38:00;;;;;;;4.50;1.02;;;8.10;97.10;;;;;;5060420;28;20070;-59
2023/04/26 10:40:32;;;;;;;2.60;1.20;;;8.30;97.50;;;;;;5061172;28;20371;-57
2023/04/26 10:43:10;;;;;;;3.33;1.05;;;8.30;97.40;;;;;;5061256;28;20072;-58
2023/04/26 10:45:37;;;;;;;5.72;1.25;;;8.40;97.60;;;;;;5066875;28;20064;-59
2023/04/26 10:48:17;;;;;;;4.20;1.10;;;8.50;97.40;;;;;;5043146;28;20040;-55
2023/04/26 10:51:03;;;;;;;4.65;1.02;;;8.60;97.70;;;;;;5046517;28;20992;-59
2023/04/26 10:53:44;;;;;;;8.27;1.52;;;8.60;97.60;;;;;;5040025;28;20132;-61
2023/04/26 10:56:19;;;;;;;6.70;1.48;;;8.80;97.70;;;;;;5042438;28;20209;-59
2023/04/26 10:58:45;;;;;;;3.13;1.10;;;8.80;97.70;;;;;;5049445;28;20037;-63
2023/04/26 11:01:16;;;;;;;4.68;1.25;;;9.00;97.80;;;;;;5032191;28;20037;-59
2023/04/26 11:03:44;;;;;;;7.28;1.13;;;9.40;97.60;;;;;;5047899;28;20599;-62
2023/04/26 11:06:14;;;;;;;4.35;1.05;;;9.10;97.60;;;;;;5062012;28;20547;-65
2023/04/26 11:08:40;;;;;;;5.00;1.25;;;9.20;97.40;;;;;;5051775;28;20091;-59
2023/04/26 11:11:14;;;;;;;4.63;1.58;;;9.20;97.20;;;;;;5054921;28;20145;-69
2023/04/26 11:13:42;;;;;;;5.00;1.00;;;9.20;97.10;;;;;;5048849;28;20524;-60
2023/04/26 11:16:11;;;;;;;6.35;2.00;;;9.50;97.30;;;;;;5060455;28;20057;-54
2023/04/26 11:18:48;;;;;;;6.63;1.88;;;9.30;97.30;;;;;;5050806;28;20048;-57
2023/04/26 11:21:16;;;;;;;3.70;1.00;;;9.40;97.30;;;;;;5052293;28;20121;-61
2023/04/26 11:23:51;;;;;;;4.65;1.08;;;9.80;97.60;;;;;;5064982;28;20036;-57
2023/04/26 11:26:17;;;;;;;5.40;1.55;;;9.40;97.00;;;;;;5072565;28;20044;-58
2023/04/26 11:28:44;;;;;;;6.53;1.20;;;9.50;97.10;;;;;;5063811;28;20047;-60
2023/04/26 11:31:10;;;;;;;5.30;1.13;;;9.50;96.90;;;;;;5053735;28;20488;-57
2023/04/26 11:33:36;;;;;;;6.15;1.50;;;9.30;96.50;;;;;;5059476;28;20032;-58
2023/04/26 11:36:02;;;;;;;9.57;1.30;;;9.30;96.70;;;;;;5086674;28;20032;-57
2023/04/26 11:38:28;;;;;;;6.95;2.63;;;9.40;97.10;;;;;;5068657;28;20048;-57
2023/04/26 11:41:02;;;;;;;3.88;1.02;;;9.30;96.70;;;;;;5085326;28;20505;-57
2023/04/26 11:43:35;;;;;;;3.92;1.17;;;9.40;96.90;;;;;;5068655;28;20157;-59
2023/04/26 11:46:02;;;;;;;3.92;1.15;;;9.50;96.90;;;;;;5078430;28;20067;-66
2023/04/26 11:48:29;;;;;;;6.85;2.25;;;9.60;97.20;;;;;;5055499;28;20074;-63
2023/04/26 11:50:58;;;;;;;4.32;1.40;;;9.70;97.40;;;;;;5083916;28;20105;-64
2023/04/26 11:53:33;;;;;;;3.42;1.05;;;9.80;97.40;;;;;;5071226;28;20385;-66
2023/04/26 11:55:59;;;;;;;4.60;1.13;;;10.00;97.40;;;;;;5091821;28;20530;-66
2023/04/26 11:58:25;;;;;;;5.82;1.20;;;10.10;97.30;;;;;;5082085;28;20554;-66
2023/04/26 12:01:01;;;;;;;3.40;1.27;;;10.70;97.50;;;;;;5073300;28;20044;-66
2023/04/26 12:03:36;;;;;;;6.00;1.30;;;10.50;97.20;;;;;;5069927;28;20032;-64
2023/04/26 12:06:02;;;;;;;3.95;0.63;;;10.60;97.00;;;;;;5060659;28;20115;-62
2023/04/26 12:08:30;;;;;;;3.22;0.57;;;10.70;96.60;;;;;;5093682;28;20036;-62
2023/04/26 12:11:00;;;;;;;4.68;0.70;;;10.70;96.60;;;;;;5072562;28;20134;-62
2023/04/26 12:13:26;;;;;;;8.88;0.70;;;8.90;95.80;;;;;;5047692;28;20739;-64
2023/04/26 12:15:53;;;;;;;8.90;0.70;;;10.60;96.00;;;;;;5064019;28;20087;-62
2023/04/26 12:18:18;;;;;;;2.42;0.52;;;10.40;95.90;;;;;;5060610;28;20416;-62
2023/04/26 12:20:47;;;;;;;2.35;0.70;;;10.30;96.00;;;;;;5053924;28;20036;-62
2023/04/26 12:23:15;;;;;;;3.72;0.65;;;10.00;96.10;;;;;;5071696;28;20058;-63
2023/04/26 12:25:51;;;;;;;2.40;0.45;;;9.90;96.10;;;;;;5052861;28;20052;-64
2023/04/26 12:28:17;;;;;;;3.83;0.60;;;9.70;96.20;;;;;;5065542;28;20040;-64
2023/04/26 12:30:42;;;;;;;2.45;0.63;;;9.60;96.30;;;;;;5064838;28;20052;-65
2023/04/26 12:33:08;;;;;;;7.85;0.70;;;9.70;96.50;;;;;;5047100;28;20055;-65
2023/04/26 12:35:34;;;;;;;10.18;1.35;;;9.40;96.70;;;;;;5077683;28;20729;-64
2023/04/26 12:38:00;;;;;;;6.03;0.73;;;9.30;96.70;;;;;;5050521;28;20048;-65
2023/04/26 12:40:30;;;;;;;4.72;0.55;;;9.20;96.60;;;;;;5065104;28;20083;-64
2023/04/26 12:42:56;;;;;;;5.20;0.93;;;9.10;96.60;;;;;;5062052;28;20060;-64
2023/04/26 12:45:28;;;;;;;3.05;0.63;;;9.10;96.70;;;;;;5026329;28;20090;-63
2023/04/26 12:47:54;;;;;;;3.42;0.52;;;9.00;96.40;;;;;;5047726;28;20777;-64
2023/04/26 12:50:20;;;;;;;3.83;0.85;;;8.90;96.30;;;;;;5066003;28;20046;-64
2023/04/26 12:52:46;;;;;;;5.15;0.70;;;8.90;96.00;;;;;;5071823;28;20039;-64
2023/04/26 12:55:13;;;;;;;4.18;0.80;;;8.90;96.10;;;;;;5073136;28;20040;-64
2023/04/26 12:57:41;;;;;;;4.45;1.10;;;9.00;96.20;;;;;;5052624;28;20093;-64
2023/04/26 13:00:12;;;;;;;2.95;0.80;;;9.00;96.20;;;;;;5060335;28;20478;-64
2023/04/26 13:02:38;;;;;;;3.72;0.60;;;9.00;96.00;;;;;;5052329;28;20108;-64
2023/04/26 13:05:05;;;;;;;3.28;0.80;;;9.10;96.00;;;;;;5050270;28;20044;-64
2023/04/26 13:07:36;;;;;;;4.13;0.85;;;9.10;95.60;;;;;;5078016;28;20040;-64
2023/04/26 13:10:03;;;;;;;2.35;0.43;;;9.30;95.40;;;;;;5048795;28;20051;-63
2023/04/26 13:12:29;;;;;;;2.08;0.47;;;9.20;95.00;;;;;;5046766;28;20132;-64
2023/04/26 13:14:55;;;;;;;4.45;0.70;;;8.70;94.50;;;;;;5049158;28;20036;-64
2023/04/26 13:17:23;;;;;;;7.10;0.85;;;9.10;94.50;;;;;;5049783;28;20056;-57
2023/04/26 13:19:49;;;;;;;1.42;0.50;;;9.30;94.50;;;;;;5025704;28;20074;-57
2023/04/26 13:22:15;;;;;;;5.03;0.73;;;9.30;94.40;;;;;;5063245;28;20443;-58
2023/04/26 13:24:41;;;;;;;3.83;0.80;;;9.30;94.10;;;;;;5061434;28;20047;-58
2023/04/26 13:27:07;;;;;;;7.65;0.85;;;9.30;94.10;;;;;;5046041;28;20051;-57
2023/04/26 13:29:32;;;;;;;9.20;1.80;;;9.40;93.80;;;;;;5064322;28;20044;-57
2023/04/26 13:31:58;;;;;;;8.30;1.40;;;9.40;94.10;;;;;;5061937;28;20052;-58
2023/04/26 13:34:25;;;;;;;3.80;1.33;;;9.20;94.40;;;;;;5083658;28;20063;-58
2023/04/26 13:36:51;;;;;;;3.67;1.10;;;9.00;94.60;;;;;;5065250;28;20051;-57
2023/04/26 13:39:18;;;;;;;3.15;1.10;;;9.10;94.90;;;;;;5051140;28;20040;-59
2023/04/26 13:41:44;;;;;;;6.03;1.05;;;8.80;95.00;;;;;;5049397;28;20032;-59
2023/04/26 13:44:09;;;;;;;8.00;1.90;;;8.70;95.00;;;;;;5046833;28;20064;-59
2023/04/26 13:46:35;;;;;;;6.63;1.15;;;8.70;95.30;;;;;;5035547;28;20767;-58
2023/04/26 13:49:01;;;;;;;3.90;1.35;;;8.70;95.40;;;;;;5082030;28;20134;-59
2023/04/26 13:51:29;;;;;;;6.28;1.65;;;8.70;95.50;;;;;;5067886;28;20063;-58
2023/04/26 13:53:55;;;;;;;6.15;1.65;;;8.60;95.50;;;;;;5064739;28;20051;-59
2023/04/26 13:56:21;;;;;;;3.83;1.40;;;9.50;95.80;;;;;;5044242;28;20028;-59
2023/04/26 13:58:47;;;;;;;3.80;1.00;;;8.70;95.70;;;;;;5063151;28;20041;-59
2023/04/26 14:01:13;;;;;;;3.67;0.93;;;8.80;95.80;;;;;;5045096;28;20036;-59
2023/04/26 14:03:40;;;;;;;3.55;1.20;;;8.80;95.80;;;;;;5063363;28;20701;-59
2023/04/26 14:06:06;;;;;;;5.05;1.10;;;9.20;95.90;;;;;;5048266;28;20394;-59
2023/04/26 14:08:32;;;;;;;3.30;0.73;;;8.80;95.80;;;;;;5047671;28;20048;-58
2023/04/26 14:10:58;;;;;;;5.80;0.73;;;8.90;95.80;;;;;;5066447;28;20055;-58
2023/04/26 14:13:23;;;;;;;2.67;0.63;;;9.20;95.70;;;;;;5038973;28;20052;-58
2023/04/26 14:15:49;;;;;;;3.08;0.80;;;8.90;95.70;;;;;;5031624;28;20064;-57
2023/04/26 14:18:15;;;;;;;5.60;0.80;;;9.20;95.60;;;;;;5046026;28;20040;-57
2023/04/26 14:20:41;;;;;;;4.45;0.80;;;8.90;95.40;;;;;;5066445;28;20040;-55
2023/04/26 14:23:07;;;;;;;6.38;0.82;;;9.00;95.40;;;;;;5039748;28;20524;-58
2023/04/26 14:25:32;;;;;;;5.30;1.20;;;9.00;95.60;;;;;;5032134;28;20040;-57
2023/04/26 14:27:58;;;;;;;4.03;1.27;;;9.10;95.70;;;;;;5057998;28;20431;-61
2023/04/26 14:30:24;;;;;;;5.43;0.98;;;9.00;95.60;;;;;;5055661;28;20032;-60
2023/04/26 14:32:50;;;;;;;3.95;0.68;;;9.50;95.70;;;;;;5039689;28;20071;-48
2023/04/26 14:35:16;;;;;;;3.38;0.60;;;9.30;95.70;;;;;;5058313;28;20046;-53
2023/04/26 14:37:42;;;;;;;5.47;1.58;;;9.40;95.80;;;;;;5057136;28;20032;-56
2023/04/26 14:40:08;;;;;;;2.47;0.93;;;9.50;95.80;;;;;;5056137;28;20047;-60
2023/04/26 14:42:33;;;;;;;3.20;0.60;;;9.70;95.90;;;;;;5038845;28;20040;-49
2023/04/26 14:44:59;;;;;;;3.10;0.50;;;10.40;96.00;;;;;;5039557;28;20044;-52
2023/04/26 14:47:25;;;;;;;3.75;1.23;;;9.90;95.80;;;;;;5017874;28;20051;-53
2023/04/26 14:49:51;;;;;;;5.97;1.10;;;10.20;96.00;;;;;;5051861;28;20584;-51
2023/04/26 14:52:17;;;;;;;7.90;0.98;;;10.00;95.90;;;;;;5049579;28;20054;-57
2023/04/26 14:54:43;;;;;;;3.38;0.80;;;10.00;95.50;;;;;;5055910;28;20866;-59
2023/04/26 14:57:09;;;;;;;2.40;0.57;;;10.00;95.30;;;;;;5040518;28;20028;-55
2023/04/26 14:59:35;;;;;;;3.28;1.00;;;9.90;95.10;;;;;;5055580;28;20051;-55
2023/04/26 15:02:02;;;;;;;5.68;0.70;;;9.90;95.10;;;;;;5053211;28;20032;-58
2023/04/26 15:04:28;;;;;;;5.95;1.15;;;9.80;95.20;;;;;;5055436;28;20047;-52
2023/04/26 15:06:53;;;;;;;3.30;0.73;;;9.90;95.30;;;;;;5056343;28;20048;-59
2023/04/26 15:09:19;;;;;;;5.32;0.98;;;9.60;95.50;;;;;;5057108;28;20075;-60
2023/04/26 15:11:45;;;;;;;4.80;0.73;;;9.50;95.40;;;;;;5058442;28;20048;-58
2023/04/26 15:14:11;;;;;;;9.32;1.15;;;9.40;95.10;;;;;;5058594;28;20474;-61
2023/04/26 15:16:36;;;;;;;4.78;0.90;;;9.20;95.30;;;;;;5052997;28;20870;-59
2023/04/26 15:19:02;;;;;;;5.05;0.88;;;9.10;95.40;;;;;;5038363;28;20049;-58
2023/04/26 15:21:28;;;;;;;6.18;1.70;;;9.00;95.30;;;;;;5028490;28;20587;-64
2023/04/26 15:23:57;;;;;;;5.15;0.70;;;9.10;95.50;;;;;;5029942;28;20058;-64
2023/04/26 15:26:22;;;;;;;5.32;1.50;;;8.80;95.60;;;;;;5023795;28;23380;-64
2023/04/26 15:28:48;;;;;;;7.03;1.23;;;8.70;95.20;;;;;;5032254;28;20545;-58
2023/04/26 15:31:14;;;;;;;3.72;1.15;;;8.60;95.40;;;;;;5051246;28;20036;-55
2023/04/26 15:33:40;;;;;;;4.55;0.63;;;8.70;95.50;;;;;;5059980;28;20043;-54
2023/04/26 15:36:06;;;;;;;3.85;0.60;;;8.70;95.60;;;;;;5061806;28;20073;-55
2023/04/26 15:38:44;;;;;;;3.13;0.90;;;8.70;95.60;;;;;;5053107;28;20035;-55
2023/04/26 15:41:09;;;;;;;5.35;1.17;;;8.70;95.80;;;;;;5043017;28;20043;-56
2023/04/26 15:43:35;;;;;;;7.15;1.00;;;8.80;95.80;;;;;;5057175;28;20028;-61
2023/04/26 15:46:01;;;;;;;4.88;0.68;;;9.10;95.80;;;;;;5010413;28;20047;-57